createdAt,value
2023-02-22T00:00:42.646Z,7.60
2023-02-22T00:03:15.350Z,7.70
2023-02-22T00:05:46.894Z,7.60
2023-02-22T00:08:15.671Z,7.90
2023-02-22T00:10:43.479Z,7.50
2023-02-22T00:13:14.181Z,7.40
2023-02-22T00:15:42.322Z,7.60
2023-02-22T00:18:13.754Z,7.70
2023-02-22T00:20:42.262Z,7.50
2023-02-22T00:23:14.679Z,7.40
2023-02-22T00:25:42.510Z,7.70
2023-02-22T00:28:10.182Z,7.80
2023-02-22T00:30:37.998Z,7.50
2023-02-22T00:33:06.324Z,7.70
2023-02-22T00:35:35.336Z,7.40
2023-02-22T00:38:04.216Z,7.20
2023-02-22T00:40:33.386Z,7.40
2023-02-22T00:43:02.699Z,7.10
2023-02-22T00:45:32.260Z,7.50
2023-02-22T00:48:00.557Z,7.10
2023-02-22T00:50:30.974Z,7.30
2023-02-22T00:53:01.404Z,6.90
2023-02-22T00:55:31.643Z,6.70
2023-02-22T00:58:01.841Z,7.00
2023-02-22T01:00:31.597Z,6.90
2023-02-22T01:02:59.661Z,7.00
2023-02-22T01:05:29.017Z,7.10
2023-02-22T01:07:58.638Z,7.30
2023-02-22T01:10:29.787Z,7.00
2023-02-22T01:12:58.514Z,7.10
2023-02-22T01:15:30.713Z,7.30
2023-02-22T01:17:59.842Z,7.00
2023-02-22T01:20:29.303Z,7.20
2023-02-22T01:22:58.560Z,7.20
2023-02-22T01:25:29.733Z,7.40
2023-02-22T01:27:58.680Z,7.40
2023-02-22T01:30:29.349Z,7.30
2023-02-22T01:32:57.924Z,7.30
2023-02-22T01:35:29.614Z,7.10
2023-02-22T01:37:58.512Z,7.30
2023-02-22T01:40:30.151Z,7.10
2023-02-22T01:42:59.968Z,6.90
2023-02-22T01:45:45.447Z,7.10
2023-02-22T01:48:16.975Z,7.10
2023-02-22T01:50:48.592Z,7.10
2023-02-22T01:53:19.115Z,7.00
2023-02-22T01:55:48.978Z,6.60
2023-02-22T01:58:19.522Z,6.70
2023-02-22T02:00:47.296Z,6.70
2023-02-22T02:03:19.324Z,6.30
2023-02-22T02:05:47.332Z,6.90
2023-02-22T02:08:23.762Z,6.40
2023-02-22T02:10:54.404Z,7.10
2023-02-22T02:13:22.235Z,6.80
2023-02-22T02:15:52.738Z,6.70
2023-02-22T02:18:20.546Z,6.90
2023-02-22T02:21:01.772Z,6.70
2023-02-22T02:24:09.802Z,6.90
2023-02-22T02:27:00.250Z,6.90
2023-02-22T02:30:05.946Z,6.60
2023-02-22T02:32:46.105Z,6.80
2023-02-22T02:35:21.324Z,6.70
2023-02-22T02:37:55.613Z,7.00
2023-02-22T02:40:31.280Z,6.90
2023-02-22T02:43:05.918Z,6.90
2023-02-22T02:45:39.596Z,6.80
2023-02-22T02:48:12.183Z,6.70
2023-02-22T02:50:45.010Z,6.70
2023-02-22T02:53:17.077Z,6.80
2023-02-22T02:55:45.073Z,6.20
2023-02-22T02:58:19.821Z,6.60
2023-02-22T03:00:48.377Z,6.60
2023-02-22T03:03:45.967Z,6.40
2023-02-22T03:06:41.542Z,6.60
2023-02-22T03:09:15.286Z,6.50
2023-02-22T03:11:52.813Z,6.50
2023-02-22T03:14:27.533Z,6.30
2023-02-22T03:17:03.367Z,6.30
2023-02-22T03:19:36.761Z,6.20
2023-02-22T03:22:11.539Z,5.90
2023-02-22T03:24:52.772Z,6.20
2023-02-22T03:27:28.883Z,6.40
2023-02-22T03:30:01.346Z,6.30
2023-02-22T03:32:34.191Z,6.20
2023-02-22T03:35:08.764Z,6.30
2023-02-22T03:37:41.565Z,6.10
2023-02-22T03:40:14.761Z,6.20
2023-02-22T03:42:47.981Z,6.50
2023-02-22T03:45:18.889Z,6.30
2023-02-22T03:47:51.242Z,6.10
2023-02-22T03:50:25.197Z,6.20
2023-02-22T03:52:54.270Z,6.10
2023-02-22T03:55:23.610Z,6.20
2023-02-22T03:57:55.448Z,6.10
2023-02-22T04:00:26.112Z,6.10
2023-02-22T04:02:53.941Z,6.40
2023-02-22T04:05:24.779Z,6.30
2023-02-22T04:07:53.012Z,6.20
2023-02-22T04:10:21.017Z,6.30
2023-02-22T04:12:49.114Z,6.40
2023-02-22T04:15:21.822Z,6.30
2023-02-22T04:17:49.670Z,6.20
2023-02-22T04:20:19.752Z,6.20
2023-02-22T04:22:48.876Z,6.50
2023-02-22T04:25:16.640Z,6.40
2023-02-22T04:27:44.337Z,6.40
2023-02-22T04:30:13.089Z,6.40
2023-02-22T04:32:40.934Z,6.50
2023-02-22T04:35:09.333Z,6.50
2023-02-22T04:37:37.309Z,6.40
2023-02-22T04:40:08.063Z,6.20
2023-02-22T04:42:35.964Z,6.30
2023-02-22T04:45:04.165Z,6.30
2023-02-22T04:47:31.933Z,6.10
2023-02-22T04:50:00.274Z,5.90
2023-02-22T04:52:28.766Z,6.00
2023-02-22T04:54:56.462Z,6.00
2023-02-22T04:57:25.577Z,5.60
2023-02-22T04:59:53.309Z,5.60
2023-02-22T05:02:21.234Z,5.50
2023-02-22T05:04:49.241Z,5.90
2023-02-22T05:07:17.645Z,5.70
2023-02-22T05:09:45.483Z,5.80
2023-02-22T05:12:13.528Z,5.70
2023-02-22T05:14:42.728Z,6.00
2023-02-22T05:17:10.479Z,5.80
2023-02-22T05:19:38.330Z,5.80
2023-02-22T05:22:06.310Z,5.70
2023-02-22T05:24:34.996Z,5.60
2023-02-22T05:27:02.749Z,5.40
2023-02-22T05:29:30.621Z,5.20
2023-02-22T05:31:59.793Z,5.70
2023-02-22T05:34:27.545Z,5.60
2023-02-22T05:36:55.329Z,5.50
2023-02-22T05:39:23.265Z,5.70
2023-02-22T05:41:51.318Z,5.70
2023-02-22T05:44:19.053Z,5.80
2023-02-22T05:46:46.813Z,5.80
2023-02-22T05:49:16.191Z,5.90
2023-02-22T05:51:43.931Z,5.80
2023-02-22T05:54:11.708Z,5.90
2023-02-22T05:56:39.469Z,6.00
2023-02-22T05:59:07.232Z,6.20
2023-02-22T06:01:35.130Z,6.00
2023-02-22T06:04:03.073Z,6.00
2023-02-22T06:06:32.190Z,5.50
2023-02-22T06:08:59.921Z,5.80
2023-02-22T06:11:27.626Z,5.50
2023-02-22T06:13:55.372Z,5.60
2023-02-22T06:16:23.686Z,5.40
2023-02-22T06:18:51.516Z,5.30
2023-02-22T06:21:19.392Z,5.40
2023-02-22T06:23:48.662Z,5.40
2023-02-22T06:26:17.427Z,5.20
2023-02-22T06:28:45.879Z,5.10
2023-02-22T06:31:13.844Z,5.70
2023-02-22T06:33:41.647Z,5.30
2023-02-22T06:36:10.525Z,5.60
2023-02-22T06:38:38.264Z,5.60
2023-02-22T06:41:07.523Z,5.80
2023-02-22T06:43:35.311Z,5.80
2023-02-22T06:46:03.162Z,5.60
2023-02-22T06:48:30.874Z,5.70
2023-02-22T06:50:58.614Z,5.80
2023-02-22T06:53:26.283Z,5.60
2023-02-22T06:55:54.621Z,5.50
2023-02-22T06:58:23.637Z,5.80
2023-02-22T07:00:51.780Z,5.70
2023-02-22T07:03:19.625Z,5.80
2023-02-22T07:05:47.567Z,5.60
2023-02-22T07:08:15.311Z,5.80
2023-02-22T07:10:43.051Z,5.70
2023-02-22T07:13:10.808Z,6.40
2023-02-22T07:15:39.866Z,6.20
2023-02-22T07:18:07.830Z,6.60
2023-02-22T07:20:36.174Z,6.60
2023-02-22T07:23:04.199Z,6.70
2023-02-22T07:25:32.261Z,6.80
2023-02-22T07:28:00.402Z,6.70
2023-02-22T07:30:31.059Z,6.50
2023-02-22T07:33:02.380Z,6.90
2023-02-22T07:35:32.361Z,6.80
2023-02-22T07:38:00.507Z,7.00
2023-02-22T07:40:29.033Z,6.90
2023-02-22T07:42:59.340Z,6.90
2023-02-22T07:45:28.831Z,6.90
2023-02-22T07:47:57.372Z,7.50
2023-02-22T07:50:30.017Z,7.40
2023-02-22T07:52:59.360Z,8.00
2023-02-22T07:55:28.869Z,8.00
2023-02-22T07:57:58.625Z,8.40
2023-02-22T08:00:28.538Z,8.70
2023-02-22T08:02:56.900Z,8.80
2023-02-22T08:05:28.754Z,9.00
2023-02-22T08:07:56.728Z,10.00
2023-02-22T08:10:26.075Z,10.40
2023-02-22T08:12:54.766Z,10.80
2023-02-22T08:15:25.447Z,11.60
2023-02-22T08:17:54.309Z,12.10
2023-02-22T08:20:22.920Z,11.90
2023-02-22T08:22:52.599Z,12.00
2023-02-22T08:25:22.084Z,12.30
2023-02-22T08:27:50.821Z,13.20
2023-02-22T08:30:21.013Z,13.00
2023-02-22T08:32:49.311Z,13.00
2023-02-22T08:35:19.334Z,12.80
2023-02-22T08:37:48.654Z,12.70
2023-02-22T08:40:19.484Z,12.90
2023-02-22T08:42:47.269Z,13.40
2023-02-22T08:45:15.325Z,14.20
2023-02-22T08:47:43.361Z,14.50
2023-02-22T08:50:16.467Z,14.50
2023-02-22T08:52:44.274Z,14.50
2023-02-22T08:55:12.137Z,13.60
2023-02-22T08:57:41.190Z,13.80
2023-02-22T09:00:11.036Z,14.00
2023-02-22T09:02:40.699Z,14.30
2023-02-22T09:05:11.092Z,14.80
2023-02-22T09:07:44.287Z,14.80
2023-02-22T09:10:17.353Z,14.50
2023-02-22T09:12:48.583Z,14.40
2023-02-22T09:15:18.497Z,14.20
2023-02-22T09:17:48.136Z,13.30
2023-02-22T09:20:21.470Z,13.90
2023-02-22T09:22:52.455Z,14.10
2023-02-22T09:25:23.142Z,14.40
2023-02-22T09:27:55.288Z,14.50
2023-02-22T09:30:32.697Z,14.00
2023-02-22T09:33:04.771Z,13.70
2023-02-22T09:35:36.724Z,14.60
2023-02-22T09:38:08.280Z,14.50
2023-02-22T09:40:45.387Z,14.40
2023-02-22T09:43:29.223Z,14.00
2023-02-22T09:46:13.906Z,14.00
2023-02-22T09:48:58.951Z,13.90
2023-02-22T09:51:36.174Z,13.50
2023-02-22T09:54:15.020Z,13.70
2023-02-22T09:56:43.717Z,13.80
2023-02-22T09:59:18.759Z,14.00
2023-02-22T10:01:51.214Z,13.70
2023-02-22T10:04:23.542Z,13.40
2023-02-22T10:07:06.805Z,13.10
2023-02-22T10:09:42.465Z,13.30
2023-02-22T10:12:14.951Z,13.50
2023-02-22T10:15:07.050Z,13.30
2023-02-22T10:17:40.246Z,13.90
2023-02-22T10:20:28.506Z,13.90
2023-02-22T10:23:12.145Z,14.40
2023-02-22T10:25:41.500Z,14.20
2023-02-22T10:28:14.431Z,14.70
2023-02-22T10:30:54.601Z,15.00
2023-02-22T10:33:24.127Z,14.90
2023-02-22T10:35:53.549Z,15.00
2023-02-22T10:38:23.439Z,15.30
2023-02-22T10:40:55.914Z,15.00
2023-02-22T10:43:25.635Z,14.80
2023-02-22T10:45:58.104Z,15.20
2023-02-22T10:48:29.845Z,15.30
2023-02-22T10:51:01.937Z,15.40
2023-02-22T10:53:31.119Z,15.50
2023-02-22T10:56:12.672Z,16.20
2023-02-22T10:58:46.474Z,16.60
2023-02-22T11:01:27.519Z,16.60
2023-02-22T11:04:00.506Z,17.60
2023-02-22T11:06:28.529Z,17.00
2023-02-22T11:09:11.307Z,17.40
2023-02-22T11:11:41.244Z,17.20
2023-02-22T11:14:10.680Z,17.40
2023-02-22T11:16:42.945Z,16.70
2023-02-22T11:19:20.434Z,16.50
2023-02-22T11:21:51.382Z,16.70
2023-02-22T11:24:20.970Z,17.00
2023-02-22T11:26:52.573Z,16.80
2023-02-22T11:29:23.153Z,16.40
2023-02-22T11:31:52.886Z,16.50
2023-02-22T11:34:32.043Z,16.30
2023-02-22T11:37:17.544Z,15.70
2023-02-22T11:39:45.539Z,15.80
2023-02-22T11:42:23.513Z,16.50
2023-02-22T11:45:10.329Z,16.80
2023-02-22T11:47:52.436Z,17.30
2023-02-22T11:50:28.867Z,17.60
2023-02-22T11:53:18.361Z,17.00
2023-02-22T11:55:55.878Z,17.20
2023-02-22T11:58:33.609Z,17.50
2023-02-22T12:01:11.798Z,18.00
2023-02-22T12:03:58.414Z,17.70
2023-02-22T12:06:41.655Z,18.40
2023-02-22T12:09:16.031Z,18.30
2023-02-22T12:11:57.116Z,18.70
2023-02-22T12:14:32.019Z,18.40
2023-02-22T12:17:19.069Z,18.30
2023-02-22T12:19:51.307Z,18.20
2023-02-22T12:22:23.239Z,18.10
2023-02-22T12:25:08.544Z,18.30
2023-02-22T12:27:42.521Z,18.00
2023-02-22T12:30:16.272Z,17.70
2023-02-22T12:32:47.517Z,17.70
2023-02-22T12:35:22.724Z,17.90
2023-02-22T12:37:58.978Z,18.00
2023-02-22T12:40:35.393Z,18.10
2023-02-22T12:43:09.539Z,17.80
2023-02-22T12:45:43.892Z,17.90
2023-02-22T12:48:27.067Z,17.80
2023-02-22T12:51:00.806Z,17.80
2023-02-22T12:53:34.504Z,17.80
2023-02-22T12:56:16.969Z,17.80
2023-02-22T12:58:50.636Z,17.90
2023-02-22T13:01:22.261Z,18.00
2023-02-22T13:03:50.095Z,18.50
2023-02-22T13:06:33.121Z,18.80
2023-02-22T13:09:18.984Z,19.10
2023-02-22T13:11:53.526Z,18.80
2023-02-22T13:14:39.306Z,18.40
2023-02-22T13:17:14.810Z,18.30
2023-02-22T13:19:49.672Z,18.30
2023-02-22T13:22:25.686Z,18.30
2023-02-22T13:25:06.697Z,18.70
2023-02-22T13:27:41.025Z,19.40
2023-02-22T13:30:20.057Z,19.40
2023-02-22T13:33:19.597Z,18.80
2023-02-22T13:36:15.058Z,18.40
2023-02-22T13:39:03.484Z,17.90
2023-02-22T13:41:52.869Z,17.60
2023-02-22T13:44:53.007Z,17.90
2023-02-22T13:47:52.232Z,17.80
2023-02-22T13:51:07.118Z,17.60
2023-02-22T13:53:45.119Z,17.70
2023-02-22T13:56:15.855Z,17.60
2023-02-22T13:58:53.073Z,17.80
2023-02-22T14:01:40.820Z,17.70
2023-02-22T14:04:37.000Z,17.50
2023-02-22T14:07:33.683Z,17.60
2023-02-22T14:10:01.754Z,17.00
2023-02-22T14:12:50.552Z,17.60
2023-02-22T14:15:29.504Z,17.20
2023-02-22T14:18:00.852Z,17.20
2023-02-22T14:20:32.234Z,16.90
2023-02-22T14:23:30.807Z,16.60
2023-02-22T14:26:11.263Z,16.60
2023-02-22T14:28:46.193Z,16.70
2023-02-22T14:31:29.709Z,16.50
2023-02-22T14:34:09.574Z,16.60
2023-02-22T14:36:45.564Z,16.50
2023-02-22T14:39:31.659Z,16.10
2023-02-22T14:42:03.574Z,16.00
2023-02-22T14:44:37.732Z,16.00
2023-02-22T14:47:08.383Z,16.20
2023-02-22T14:49:41.387Z,16.00
2023-02-22T14:52:19.576Z,16.00
2023-02-22T14:55:04.566Z,16.50
2023-02-22T14:57:42.805Z,16.40
2023-02-22T15:00:22.687Z,15.80
2023-02-22T15:02:57.091Z,16.00
2023-02-22T15:05:27.532Z,16.30
2023-02-22T15:07:57.889Z,15.80
2023-02-22T15:10:29.610Z,15.80
2023-02-22T15:13:10.474Z,15.70
2023-02-22T15:15:43.731Z,15.80
2023-02-22T15:18:29.926Z,15.60
2023-02-22T15:21:00.210Z,15.70
2023-02-22T15:23:33.319Z,15.60
2023-02-22T15:26:01.306Z,15.70
2023-02-22T15:28:31.806Z,15.30
2023-02-22T15:31:25.931Z,15.40
2023-02-22T15:33:55.327Z,15.60
2023-02-22T15:36:27.302Z,15.30
2023-02-22T15:38:56.714Z,15.50
2023-02-22T15:41:28.766Z,15.40
2023-02-22T15:44:17.560Z,15.40
2023-02-22T15:46:54.342Z,15.30
2023-02-22T15:49:24.342Z,14.90
2023-02-22T15:52:04.974Z,15.10
2023-02-22T15:54:40.455Z,15.30
2023-02-22T15:57:08.297Z,15.20
2023-02-22T15:59:44.606Z,15.00
2023-02-22T16:02:39.054Z,14.80
2023-02-22T16:05:10.396Z,15.10
2023-02-22T16:07:45.093Z,14.90
2023-02-22T16:10:23.737Z,14.60
2023-02-22T16:13:03.466Z,14.80
2023-02-22T16:15:33.583Z,14.60
2023-02-22T16:18:26.488Z,14.70
2023-02-22T16:21:07.260Z,14.40
2023-02-22T16:23:46.101Z,14.40
2023-02-22T16:26:26.538Z,14.00
2023-02-22T16:28:56.812Z,14.30
2023-02-22T16:31:26.498Z,14.20
2023-02-22T16:33:56.324Z,14.30
2023-02-22T16:36:36.761Z,14.10
2023-02-22T16:39:07.361Z,14.00
2023-02-22T16:41:35.416Z,14.10
2023-02-22T16:44:03.610Z,14.00
2023-02-22T16:46:31.399Z,13.90
2023-02-22T16:49:03.271Z,13.70
2023-02-22T16:51:39.838Z,13.60
2023-02-22T16:54:12.511Z,13.60
2023-02-22T16:56:41.322Z,13.30
2023-02-22T16:59:14.019Z,13.40
2023-02-22T17:01:41.998Z,13.10
2023-02-22T17:04:15.828Z,13.10
2023-02-22T17:06:43.640Z,13.00
2023-02-22T17:09:11.503Z,13.10
2023-02-22T17:11:39.692Z,12.80
2023-02-22T17:14:07.587Z,12.90
2023-02-22T17:16:35.476Z,13.00
2023-02-22T17:19:04.996Z,13.00
2023-02-22T17:21:34.281Z,12.90
2023-02-22T17:24:02.162Z,13.10
2023-02-22T17:26:30.100Z,13.10
2023-02-22T17:28:57.893Z,12.90
2023-02-22T17:31:30.034Z,13.20
2023-02-22T17:34:02.060Z,13.00
2023-02-22T17:36:29.965Z,13.10
2023-02-22T17:38:59.879Z,12.70
2023-02-22T17:41:27.662Z,13.40
2023-02-22T17:43:58.029Z,13.20
2023-02-22T17:46:26.729Z,13.00
2023-02-22T17:48:54.962Z,13.20
2023-02-22T17:51:24.433Z,13.00
2023-02-22T17:53:52.622Z,12.90
2023-02-22T17:56:22.035Z,12.50
2023-02-22T17:58:53.490Z,12.80
2023-02-22T18:01:25.018Z,12.90
2023-02-22T18:03:53.109Z,12.80
2023-02-22T18:06:25.218Z,12.60
2023-02-22T18:08:56.208Z,12.90
2023-02-22T18:11:27.301Z,12.80
2023-02-22T18:13:56.015Z,12.50
2023-02-22T18:16:25.416Z,12.80
2023-02-22T18:18:53.555Z,12.80
2023-02-22T18:21:21.620Z,12.80
2023-02-22T18:23:49.638Z,12.60
2023-02-22T18:26:19.533Z,12.70
2023-02-22T18:28:49.472Z,12.80
2023-02-22T18:31:19.046Z,12.50
2023-02-22T18:33:49.361Z,12.50
2023-02-22T18:36:22.464Z,12.60
2023-02-22T18:38:51.445Z,12.60
2023-02-22T18:41:25.127Z,12.20
2023-02-22T18:43:57.526Z,12.10
2023-02-22T18:46:26.242Z,12.50
2023-02-22T18:48:55.539Z,12.50
2023-02-22T18:51:24.766Z,12.10
2023-02-22T18:53:56.815Z,12.10
2023-02-22T18:56:29.877Z,12.40
2023-02-22T18:59:00.706Z,12.40
2023-02-22T19:01:29.965Z,12.00
2023-02-22T19:03:59.226Z,11.80
2023-02-22T19:06:26.961Z,11.90
2023-02-22T19:08:55.304Z,12.10
2023-02-22T19:11:25.558Z,12.00
2023-02-22T19:13:54.909Z,12.00
2023-02-22T19:16:25.723Z,12.00
2023-02-22T19:18:56.804Z,12.00
2023-02-22T19:21:25.513Z,11.90
2023-02-22T19:23:53.510Z,11.60
2023-02-22T19:26:23.792Z,11.30
2023-02-22T19:28:52.815Z,11.70
2023-02-22T19:31:23.039Z,11.90
2023-02-22T19:33:53.422Z,11.70
2023-02-22T19:36:23.645Z,11.60
2023-02-22T19:38:51.492Z,11.50
2023-02-22T19:41:21.669Z,11.60
2023-02-22T19:43:51.421Z,11.70
2023-02-22T19:46:21.162Z,11.50
2023-02-22T19:48:50.859Z,11.70
2023-02-22T19:51:24.449Z,11.70
2023-02-22T19:53:53.564Z,11.70
2023-02-22T19:56:26.905Z,11.60
2023-02-22T19:58:56.815Z,11.60
2023-02-22T20:01:26.552Z,11.80
2023-02-22T20:03:56.026Z,11.70
2023-02-22T20:06:28.037Z,11.60
2023-02-22T20:08:56.923Z,11.80
2023-02-22T20:11:25.768Z,11.70
2023-02-22T20:13:55.377Z,11.60
2023-02-22T20:16:23.748Z,11.00
2023-02-22T20:18:51.778Z,11.50
2023-02-22T20:21:22.735Z,11.50
2023-02-22T20:23:56.884Z,11.40
2023-02-22T20:26:25.780Z,11.70
2023-02-22T20:28:54.184Z,11.40
2023-02-22T20:31:22.584Z,11.50
2023-02-22T20:33:54.932Z,11.30
2023-02-22T20:36:24.712Z,11.30
2023-02-22T20:38:55.290Z,11.40
2023-02-22T20:41:26.800Z,11.60
2023-02-22T20:43:56.272Z,10.70
2023-02-22T20:46:25.131Z,11.10
2023-02-22T20:48:56.529Z,11.00
2023-02-22T20:51:24.731Z,10.60
2023-02-22T20:53:54.514Z,11.20
2023-02-22T20:56:25.213Z,10.90
2023-02-22T20:58:53.227Z,11.10
2023-02-22T21:01:22.427Z,11.10
2023-02-22T21:03:51.320Z,11.20
2023-02-22T21:06:22.826Z,11.10
2023-02-22T21:08:53.519Z,11.30
2023-02-22T21:11:25.062Z,11.10
2023-02-22T21:13:53.511Z,11.00
2023-02-22T21:16:24.391Z,11.30
2023-02-22T21:18:53.020Z,11.30
2023-02-22T21:21:21.578Z,11.70
2023-02-22T21:23:50.919Z,11.40
2023-02-22T21:26:20.758Z,11.20
2023-02-22T21:28:51.747Z,11.30
2023-02-22T21:31:21.569Z,11.30
2023-02-22T21:33:50.527Z,11.70
2023-02-22T21:36:19.040Z,11.50
2023-02-22T21:38:53.408Z,11.50
2023-02-22T21:41:23.512Z,11.50
2023-02-22T21:43:52.996Z,11.50
2023-02-22T21:46:21.384Z,11.50
2023-02-22T21:48:49.498Z,11.50
2023-02-22T21:51:19.937Z,11.60
2023-02-22T21:53:49.260Z,11.80
2023-02-22T21:56:20.689Z,11.60
2023-02-22T21:58:51.227Z,11.70
2023-02-22T22:01:20.537Z,11.70
2023-02-22T22:03:48.510Z,11.60
2023-02-22T22:06:16.319Z,11.60
2023-02-22T22:08:46.057Z,11.60
2023-02-22T22:11:17.743Z,11.50
2023-02-22T22:13:46.101Z,11.60
2023-02-22T22:16:16.292Z,11.50
2023-02-22T22:18:46.724Z,11.20
2023-02-22T22:21:17.897Z,11.30
2023-02-22T22:23:47.377Z,11.50
2023-02-22T22:26:16.952Z,11.60
2023-02-22T22:28:47.163Z,11.50
2023-02-22T22:31:16.444Z,11.60
2023-02-22T22:33:46.197Z,11.60
2023-02-22T22:36:16.333Z,11.60
2023-02-22T22:38:46.902Z,11.00
2023-02-22T22:41:16.645Z,11.40
2023-02-22T22:43:46.073Z,11.60
2023-02-22T22:46:16.094Z,11.50
2023-02-22T22:48:46.909Z,11.60
2023-02-22T22:51:18.100Z,11.70
2023-02-22T22:53:47.914Z,11.20
2023-02-22T22:56:17.524Z,11.70
2023-02-22T22:58:49.063Z,11.50
2023-02-22T23:01:19.618Z,11.60
2023-02-22T23:03:54.824Z,11.50
2023-02-22T23:06:27.249Z,11.40
2023-02-22T23:08:59.908Z,11.30
2023-02-22T23:11:29.477Z,11.60
2023-02-22T23:13:57.609Z,11.40
2023-02-22T23:16:25.883Z,11.60
2023-02-22T23:18:55.133Z,11.40
2023-02-22T23:21:24.289Z,11.50
2023-02-22T23:23:55.422Z,11.40
2023-02-22T23:26:26.449Z,11.40
2023-02-22T23:28:59.068Z,11.30
2023-02-22T23:31:28.587Z,11.30
2023-02-22T23:33:59.452Z,11.30
2023-02-22T23:36:28.224Z,11.20
2023-02-22T23:38:55.997Z,10.90
2023-02-22T23:41:25.164Z,11.30
2023-02-22T23:43:53.778Z,11.40
2023-02-22T23:46:21.678Z,11.20
2023-02-22T23:48:52.014Z,11.40
2023-02-22T23:51:25.529Z,11.00
2023-02-22T23:53:55.611Z,11.10
2023-02-22T23:56:26.403Z,11.00
2023-02-22T23:58:57.043Z,11.00
